Time;durP1;ratioP1;P1;durP2;ratioP2;P2;SDS_P1;SDS_P2;PMS_P1;PMS_P2;Temp;Humidity;BMP_temperature;BMP_pressure;BME280_temperature;BME280_humidity;BME280_pressure;Samples;Min_cycle;Max_cycle;Signal;HPM_P1;HPM_P2
2023/10/04 00:00:27;;;;;;;11.10;4.85;;;;;;;14.39;56.22;100515.88;6304195;22;20102;-83
2023/10/04 00:02:54;;;;;;;22.20;6.50;;;;;;;14.36;56.68;100510.59;6304489;22;19999;-83
2023/10/04 00:05:22;;;;;;;16.77;6.97;;;;;;;13.93;55.90;100438.81;6304520;22;20097;-83
2023/10/04 00:07:49;;;;;;;14.32;5.68;;;;;;;14.02;57.06;100453.69;6304309;22;20003;-84
2023/10/04 00:10:17;;;;;;;10.10;5.00;;;;;;;14.23;57.16;100494.91;6303910;22;20048;-84
2023/10/04 00:12:43;;;;;;;11.18;5.13;;;;;;;14.23;56.72;100480.78;6304597;22;20082;-83
2023/10/04 00:15:10;;;;;;;12.25;4.85;;;;;;;14.15;56.17;100479.13;6304203;22;20007;-83
2023/10/04 00:17:41;;;;;;;17.92;5.82;;;;;;;14.00;56.33;100466.09;6304479;22;20003;-83
2023/10/04 00:20:16;;;;;;;13.25;5.72;;;;;;;14.03;56.43;100481.13;6304504;22;20030;-83
2023/10/04 00:22:46;;;;;;;10.32;5.68;;;;;;;14.03;56.76;100499.69;6304740;22;20003;-83
2023/10/04 00:25:23;;;;;;;12.82;5.40;;;;;;;14.07;56.96;100498.72;6305072;22;20014;-83
2023/10/04 00:27:57;;;;;;;13.63;4.95;;;;;;;13.96;56.95;100473.25;6304393;22;20085;-83
2023/10/04 00:30:26;;;;;;;17.52;5.32;;;;;;;14.00;57.20;100497.94;6304498;22;20007;-83
2023/10/04 00:32:53;;;;;;;13.80;6.20;;;;;;;13.86;57.22;100484.03;6303802;22;20074;-83
2023/10/04 00:35:20;;;;;;;13.23;5.68;;;;;;;14.13;57.17;100501.25;6304398;22;20420;-82
2023/10/04 00:37:55;;;;;;;14.02;6.55;;;;;;;14.02;57.20;100500.56;6304186;22;20006;-84
2023/10/04 00:40:26;;;;;;;17.35;6.03;;;;;;;13.81;57.84;100475.25;6304176;22;20137;-84
2023/10/04 00:42:54;;;;;;;16.00;5.38;;;;;;;13.70;57.71;100471.03;6304473;22;20003;-84
2023/10/04 00:45:20;;;;;;;18.65;6.15;;;;;;;13.74;57.17;100477.13;6303794;22;20335;-84
2023/10/04 00:47:47;;;;;;;12.45;5.35;;;;;;;13.60;57.42;100496.78;6302406;22;20400;-84
2023/10/04 00:50:16;;;;;;;12.95;6.05;;;;;;;13.40;57.88;100472.34;6304122;22;20010;-83
2023/10/04 00:52:49;;;;;;;12.55;6.75;;;;;;;13.34;58.33;100461.81;6303790;22;20007;-82
2023/10/04 00:55:19;;;;;;;15.13;6.22;;;;;;;13.11;58.46;100468.28;6304080;22;20011;-82
2023/10/04 00:57:48;;;;;;;17.13;7.38;;;;;;;13.18;57.98;100453.19;6304645;22;20471;-81
2023/10/04 01:00:14;;;;;;;12.77;5.47;;;;;;;13.30;58.72;100491.88;6303957;22;20433;-81
2023/10/04 01:02:41;;;;;;;14.77;5.63;;;;;;;13.26;58.37;100494.56;6304113;22;20035;-82
2023/10/04 01:05:07;;;;;;;11.43;5.95;;;;;;;13.06;58.75;100468.34;6303625;22;19999;-83
2023/10/04 01:07:35;;;;;;;14.10;6.53;;;;;;;12.89;58.81;100452.66;6304099;22;20026;-83
2023/10/04 01:10:01;;;;;;;11.90;5.25;;;;;;;13.10;57.84;100457.69;6303093;22;19999;-84
2023/10/04 01:12:27;;;;;;;22.85;7.05;;;;;;;13.31;57.81;100486.56;6303417;22;20000;-83
2023/10/04 01:14:53;;;;;;;;;;;;;;;13.18;58.60;100511.47;6304873;22;20011;-83
2023/10/04 01:17:20;;;;;;;18.95;7.28;;;;;;;13.04;59.00;100490.47;6303561;22;19906;-83
2023/10/04 01:19:46;;;;;;;12.07;5.65;;;;;;;12.93;57.59;100442.91;6304296;22;20015;-83
2023/10/04 01:22:11;;;;;;;15.90;5.95;;;;;;;12.92;57.86;100495.91;6304009;22;20003;-83
2023/10/04 01:24:41;;;;;;;;;;;;;;;12.86;58.87;100510.06;6304313;22;20081;-82
2023/10/04 01:27:09;;;;;;;9.98;4.63;;;;;;;12.86;59.01;100516.25;6303236;22;20253;-82
2023/10/04 01:29:38;;;;;;;10.57;5.30;;;;;;;12.71;58.94;100456.41;6303654;22;20010;-82
2023/10/04 01:32:05;;;;;;;13.23;6.40;;;;;;;12.85;58.63;100485.38;6303296;22;20015;-82
2023/10/04 01:34:30;;;;;;;12.90;6.90;;;;;;;13.05;58.70;100500.13;6303630;22;20056;-81
2023/10/04 01:36:55;;;;;;;;;;;;;;;13.03;59.28;100499.28;6302990;22;20035;-82
2023/10/04 01:39:22;;;;;;;;;;;;;;;13.18;58.42;100503.53;6304082;22;19907;-82
2023/10/04 01:41:49;;;;;;;15.00;6.43;;;;;;;13.04;57.97;100472.78;6301694;22;19972;-83
2023/10/04 01:44:15;;;;;;;16.00;6.65;;;;;;;13.10;58.59;100495.69;6303277;22;20437;-82
2023/10/04 01:46:42;;;;;;;13.93;5.30;;;;;;;12.75;58.29;100443.16;6303709;22;20035;-81
2023/10/04 01:49:08;;;;;;;14.75;5.55;;;;;;;12.70;58.26;100446.72;6303365;22;20027;-82
2023/10/04 01:51:33;;;;;;;;;;;;;;;13.06;58.39;100505.41;6303858;22;20780;-82
2023/10/04 01:54:00;;;;;;;10.52;4.97;;;;;;;13.12;58.38;100508.91;6303610;22;19911;-83
2023/10/04 01:56:26;;;;;;;19.88;5.70;;;;;;;13.02;57.72;100478.97;6303889;22;20010;-83
2023/10/04 01:58:51;;;;;;;;;;;;;;;13.28;57.24;100501.63;6303799;22;20034;-84
2023/10/04 02:01:17;;;;;;;10.60;5.07;;;;;;;12.90;58.45;100477.38;6303516;22;20316;-83
2023/10/04 02:03:42;;;;;;;13.73;5.20;;;;;;;12.86;58.37;100499.50;6302762;22;20007;-84
2023/10/04 02:06:08;;;;;;;;;;;;;;;12.86;58.62;100505.66;6303286;22;20097;-84
2023/10/04 02:08:34;;;;;;;13.30;5.22;;;;;;;12.63;59.07;100478.56;6303193;22;19910;-85
2023/10/04 02:10:59;;;;;;;;;;;;;;;12.78;59.07;100510.16;6304029;22;20003;-84
2023/10/04 02:13:25;;;;;;;10.60;5.93;;;;;;;12.59;59.45;100496.25;6275617;22;19982;-82
2023/10/04 02:15:51;;;;;;;14.13;5.63;;;;;;;12.31;60.52;100503.56;6303450;22;20003;-82
2023/10/04 02:18:19;;;;;;;10.75;4.75;;;;;;;12.02;61.09;100480.03;6303610;22;19999;-82
2023/10/04 02:20:47;;;;;;;10.05;5.25;;;;;;;12.30;60.22;100473.59;6303284;22;19999;-83
2023/10/04 02:23:13;;;;;;;10.35;5.93;;;;;;;12.42;59.86;100488.50;6304622;22;20003;-84
2023/10/04 02:25:39;;;;;;;11.75;5.65;;;;;;;12.58;59.09;100475.09;6305417;22;20008;-83
2023/10/04 02:28:11;;;;;;;;;;;;;;;12.62;58.48;100498.88;6305648;22;20077;-83
2023/10/04 02:30:39;;;;;;;11.32;5.70;;;;;;;12.55;59.21;100470.72;6305295;22;19981;-83
2023/10/04 02:33:09;;;;;;;10.82;5.85;;;;;;;12.69;59.31;100497.03;6305314;22;20459;-83
2023/10/04 02:35:41;;;;;;;10.15;5.10;;;;;;;12.43;59.31;100481.41;6305719;22;20000;-83
2023/10/04 02:38:16;;;;;;;18.92;6.13;;;;;;;12.40;59.55;100462.94;6305724;22;20011;-83
2023/10/04 02:40:45;;;;;;;14.45;6.38;;;;;;;12.47;59.77;100467.28;6305238;22;20007;-83
2023/10/04 02:43:11;;;;;;;14.30;5.63;;;;;;;12.45;60.03;100458.47;6300447;22;20507;-83
2023/10/04 02:45:37;;;;;;;;;;;;;;;12.62;60.51;100493.59;6305281;22;19999;-83
2023/10/04 02:48:04;;;;;;;14.57;6.03;;;;;;;12.53;60.33;100467.22;6305550;22;19918;-83
2023/10/04 02:50:29;;;;;;;9.98;4.90;;;;;;;12.69;60.38;100489.94;6304692;22;20007;-80
2023/10/04 02:52:56;;;;;;;;;;;;;;;12.61;60.61;100490.94;6305435;22;20006;-83
2023/10/04 02:55:21;;;;;;;20.33;7.25;;;;;;;12.49;60.98;100468.13;6304957;22;19917;-81
2023/10/04 02:57:50;;;;;;;;;;;;;;;12.58;61.45;100490.97;6305726;22;20003;-81
2023/10/04 03:00:19;;;;;;;11.02;6.25;;;;;;;12.10;61.66;100427.97;6305294;22;20302;-81
2023/10/04 03:02:52;;;;;;;15.02;5.50;;;;;;;12.18;61.49;100410.25;6305037;22;20494;-81
2023/10/04 03:05:20;;;;;;;15.15;6.47;;;;;;;12.71;61.35;100489.94;6305057;22;20003;-81
2023/10/04 03:07:48;;;;;;;21.13;5.65;;;;;;;12.46;61.60;100450.50;6304496;22;20007;-82
2023/10/04 03:10:23;;;;;;;20.83;6.47;;;;;;;12.72;61.85;100489.06;6305056;22;20007;-82
2023/10/04 03:12:53;;;;;;;14.38;6.82;;;;;;;12.71;62.20;100492.59;6304911;22;20412;-82
2023/10/04 03:15:22;;;;;;;12.88;5.28;;;;;;;12.52;62.06;100461.03;6304608;22;20007;-81
2023/10/04 03:17:52;;;;;;;14.57;5.50;;;;;;;12.61;62.44;100472.44;6304799;22;20003;-82
2023/10/04 03:20:20;;;;;;;13.70;6.47;;;;;;;12.72;62.46;100502.28;6304984;22;20007;-81
2023/10/04 03:22:50;;;;;;;13.98;7.18;;;;;;;12.78;62.22;100493.41;6304068;22;20788;-81
2023/10/04 03:25:16;;;;;;;16.50;7.53;;;;;;;12.54;62.68;100464.56;6304616;22;20003;-82
2023/10/04 03:27:46;;;;;;;11.18;5.53;;;;;;;12.50;62.94;100467.25;6304670;22;20003;-82
2023/10/04 03:30:14;;;;;;;18.17;5.68;;;;;;;12.70;62.74;100475.84;6304790;22;20464;-82
2023/10/04 03:32:52;;;;;;;11.18;5.35;;;;;;;12.57;62.36;100473.34;6304725;22;20007;-83
2023/10/04 03:35:21;;;;;;;12.25;5.70;;;;;;;12.46;63.13;100495.50;6304063;22;20010;-83
2023/10/04 03:38:01;;;;;;;8.48;4.93;;;;;;;12.54;62.73;100483.06;6304267;22;20072;-84
2023/10/04 03:40:34;;;;;;;12.43;6.63;;;;;;;12.71;62.42;100508.47;6305027;22;20003;-84
2023/10/04 03:43:02;;;;;;;8.98;4.93;;;;;;;12.63;62.28;100503.25;6304316;22;20000;-84
2023/10/04 03:45:28;;;;;;;10.68;5.22;;;;;;;12.61;61.80;100486.53;6304849;22;20003;-83
2023/10/04 03:47:54;;;;;;;13.30;6.82;;;;;;;12.66;61.87;100502.34;6303540;22;20080;-81
2023/10/04 03:50:19;;;;;;;15.85;6.22;;;;;;;12.48;61.63;100466.38;6304938;22;20003;-82
2023/10/04 03:52:46;;;;;;;;;;;;;;;12.79;61.78;100505.75;6304768;22;20009;-82
2023/10/04 03:55:13;;;;;;;13.50;5.80;;;;;;;12.77;61.37;100513.69;6304600;22;19913;-82
2023/10/04 03:57:42;;;;;;;16.80;5.97;;;;;;;12.40;61.57;100469.09;6304148;22;20003;-83
2023/10/04 04:00:13;;;;;;;8.63;5.82;;;;;;;12.40;61.71;100455.88;6304628;22;20007;-82
2023/10/04 04:02:39;;;;;;;13.40;6.22;;;;;;;12.47;61.76;100477.88;6304187;22;20003;-82
2023/10/04 04:05:09;;;;;;;10.52;5.13;;;;;;;12.58;61.72;100494.50;6304912;22;20108;-81
2023/10/04 04:07:35;;;;;;;13.70;6.35;;;;;;;12.33;61.96;100444.47;6303586;22;20456;-81
2023/10/04 04:10:04;;;;;;;10.80;5.65;;;;;;;12.55;62.15;100494.53;6303833;22;20000;-81
2023/10/04 04:12:30;;;;;;;14.13;5.88;;;;;;;12.52;62.15;100491.91;6304733;22;20062;-82
2023/10/04 04:14:56;;;;;;;;;;;;;;;12.43;62.81;100499.94;6304966;22;20007;-81
2023/10/04 04:17:22;;;;;;;12.98;5.88;;;;;;;12.40;62.13;100477.03;6304309;22;19907;-81
2023/10/04 04:19:49;;;;;;;14.32;6.88;;;;;;;12.47;62.33;100475.22;6303838;22;20113;-80
2023/10/04 04:22:23;;;;;;;16.83;6.38;;;;;;;12.36;62.85;100462.09;6303500;22;20362;-80
2023/10/04 04:24:51;;;;;;;18.88;6.18;;;;;;;12.47;62.25;100476.09;6303844;22;20051;-81
2023/10/04 04:27:27;;;;;;;10.65;5.30;;;;;;;12.44;62.56;100494.63;6303747;22;20478;-81
2023/10/04 04:29:53;;;;;;;10.65;6.53;;;;;;;12.33;63.08;100478.88;6304227;22;20458;-81
2023/10/04 04:32:27;;;;;;;;;;;;;;;12.35;63.37;100492.09;6304603;22;20026;-83
2023/10/04 04:34:54;;;;;;;17.85;6.13;;;;;;;12.44;62.56;100485.84;6302752;22;19918;-83
2023/10/04 04:37:23;;;;;;;18.27;6.65;;;;;;;12.48;62.69;100475.19;6303035;22;20010;-83
2023/10/04 04:39:49;;;;;;;15.18;8.00;;;;;;;12.47;62.29;100499.03;6302797;22;20003;-82
2023/10/04 04:42:20;;;;;;;26.70;7.68;;;;;;;12.35;62.62;100461.19;6303497;22;20094;-81
2023/10/04 04:44:46;;;;;;;18.23;6.45;;;;;;;12.37;63.10;100463.81;6301913;22;20090;-81
2023/10/04 04:47:12;;;;;;;;;;;;;;;12.45;63.38;100495.50;6304176;22;20539;-81
2023/10/04 04:49:37;;;;;;;17.13;9.00;;;;;;;12.32;63.85;100476.25;6302578;22;19910;-82
2023/10/04 04:52:05;;;;;;;;;;;;;;;12.61;64.14;100501.53;6303246;22;20003;-80
2023/10/04 04:54:32;;;;;;;31.35;7.15;;;;;;;12.51;63.60;100490.16;6302562;22;19988;-82
2023/10/04 04:56:58;;;;;;;21.55;6.82;;;;;;;12.39;63.71;100454.13;6303702;22;20010;-80
2023/10/04 04:59:24;;;;;;;;;;;;;;;12.75;64.14;100510.19;6303053;22;20361;-80
2023/10/04 05:01:51;;;;;;;26.80;7.32;;;;;;;12.68;63.54;100484.69;6303509;22;19907;-80
2023/10/04 05:04:18;;;;;;;21.75;7.93;;;;;;;12.80;63.48;100513.66;6302471;22;20037;-81
2023/10/04 05:06:44;;;;;;;20.65;8.98;;;;;;;12.48;64.08;100467.25;6302763;22;20013;-82
2023/10/04 05:09:12;;;;;;;;;;;;;;;12.84;63.89;100514.53;6303361;22;20163;-83
2023/10/04 05:11:38;;;;;;;24.98;6.97;;;;;;;12.88;63.96;100502.97;6302476;22;19906;-82
2023/10/04 05:14:06;;;;;;;20.67;8.00;;;;;;;12.71;63.68;100477.59;6303161;22;20014;-82
2023/10/04 05:16:32;;;;;;;24.70;8.65;;;;;;;12.95;63.64;100519.69;6301635;22;20080;-82
2023/10/04 05:18:58;;;;;;;;;;;;;;;13.11;63.52;100512.44;6303610;22;20003;-82
2023/10/04 05:21:24;;;;;;;30.60;8.15;;;;;;;12.98;63.21;100475.50;6302622;22;20325;-86
2023/10/04 05:23:49;;;;;;;;;;;;;;;13.45;64.39;100514.69;6304234;22;20026;-85
2023/10/04 05:26:15;;;;;;;30.15;10.38;;;;;;;13.68;63.57;100506.41;6303035;22;19907;-85
2023/10/04 05:28:40;;;;;;;;;;;;;;;13.90;63.99;100517.53;6304431;22;20003;-85
2023/10/04 05:31:08;;;;;;;22.75;8.05;;;;;;;13.74;63.28;100456.78;6303539;22;19909;-86
2023/10/04 05:33:35;;;;;;;12.35;7.15;;;;;;;14.32;62.20;100504.50;6302386;22;20287;-84
2023/10/04 05:36:01;;;;;;;24.90;7.00;;;;;;;14.45;60.53;100500.69;6303582;22;20006;-83
2023/10/04 05:38:28;;;;;;;25.58;6.13;;;;;;;14.79;60.19;100502.75;6303201;22;20004;-84
2023/10/04 05:40:54;;;;;;;19.38;7.93;;;;;;;14.65;59.97;100489.75;6303898;22;20007;-84
2023/10/04 05:43:19;;;;;;;18.88;7.50;;;;;;;15.01;59.60;100529.78;6275951;22;19999;-84
2023/10/04 05:45:47;;;;;;;;;;;;;;;15.16;59.17;100536.56;6303032;22;20003;-85
2023/10/04 05:48:14;;;;;;;33.05;8.85;;;;;;;14.99;58.74;100512.13;6302376;22;20289;-84
2023/10/04 05:50:40;;;;;;;25.60;7.10;;;;;;;15.12;58.48;100526.91;6303596;22;20038;-85
2023/10/04 05:53:08;;;;;;;15.05;6.18;;;;;;;15.13;58.81;100512.69;6302314;22;19999;-85
2023/10/04 05:55:35;;;;;;;19.45;6.40;;;;;;;15.27;57.23;100511.53;6303239;22;20006;-85
2023/10/04 05:58:03;;;;;;;20.17;7.50;;;;;;;15.52;57.18;100527.81;6302561;22;20023;-84
2023/10/04 06:00:29;;;;;;;13.82;5.88;;;;;;;15.88;56.89;100534.13;6302369;22;20446;-84
2023/10/04 06:02:59;;;;;;;20.77;7.80;;;;;;;16.00;56.13;100502.81;6302531;22;20053;-88
2023/10/04 06:05:31;;;;;;;27.70;7.20;;;;;;;16.07;56.32;100547.88;6302678;22;20000;-84
2023/10/04 06:07:57;;;;;;;22.48;6.35;;;;;;;16.46;54.85;100509.63;6302698;22;20006;-85
2023/10/04 06:10:24;;;;;;;23.52;7.82;;;;;;;16.82;54.22;100514.88;6302128;22;20083;-88
2023/10/04 06:12:53;;;;;;;18.05;8.10;;;;;;;17.30;53.41;100537.53;6302586;22;20008;-87
2023/10/04 06:15:19;;;;;;;14.35;5.35;;;;;;;17.50;51.90;100528.94;6302624;22;20007;-87
2023/10/04 06:17:46;;;;;;;15.65;6.38;;;;;;;17.52;51.13;100509.31;6302679;22;20519;-85
2023/10/04 06:20:25;;;;;;;8.13;5.05;;;;;;;18.14;50.79;100535.88;6302546;22;19999;-86
2023/10/04 06:22:51;;;;;;;18.38;6.45;;;;;;;18.22;49.49;100524.00;6302694;22;19999;-87
2023/10/04 06:25:19;;;;;;;10.68;5.53;;;;;;;18.39;48.45;100523.41;6302196;22;20438;-87
2023/10/04 06:27:44;;;;;;;14.23;6.40;;;;;;;18.48;48.06;100524.06;6302218;22;20007;-87
2023/10/04 06:30:12;;;;;;;16.90;6.68;;;;;;;18.51;47.44;100516.78;6303148;22;20437;-87
2023/10/04 06:32:39;;;;;;;13.95;6.10;;;;;;;18.63;46.92;100518.19;6302471;22;20068;-86
2023/10/04 06:35:06;;;;;;;16.15;6.35;;;;;;;18.76;46.98;100513.25;6301623;22;20107;-87
2023/10/04 06:37:32;;;;;;;17.60;5.63;;;;;;;19.21;45.42;100525.88;6302342;22;20006;-87
2023/10/04 06:39:57;;;;;;;13.98;6.03;;;;;;;19.04;44.75;100475.72;6301986;22;20003;-87
2023/10/04 06:42:22;;;;;;;26.23;5.30;;;;;;;19.43;43.74;100501.00;6301353;22;20009;-88
2023/10/04 06:44:49;;;;;;;12.75;4.80;;;;;;;19.68;43.10;100506.25;6302014;22;20010;-88
2023/10/04 06:47:15;;;;;;;11.45;4.93;;;;;;;19.93;42.59;100521.38;6302498;22;20005;-87
2023/10/04 06:49:41;;;;;;;11.43;5.65;;;;;;;20.16;42.46;100515.94;6302813;22;20049;-85
2023/10/04 06:52:07;;;;;;;12.27;5.35;;;;;;;20.01;43.15;100505.84;6302144;22;20346;-85
2023/10/04 06:54:34;;;;;;;13.20;6.20;;;;;;;20.03;42.16;100485.22;6303202;22;20003;-88
2023/10/04 06:57:00;;;;;;;15.05;6.82;;;;;;;20.06;42.30;100498.50;6274132;22;20474;-87
2023/10/04 06:59:26;;;;;;;10.43;5.65;;;;;;;20.44;41.40;100521.94;6274544;22;20007;-86
2023/10/04 07:01:51;;;;;;;27.05;6.07;;;;;;;20.52;40.96;100517.97;6302702;22;20034;-86
2023/10/04 07:04:18;;;;;;;20.83;6.65;;;;;;;20.58;41.26;100490.91;6302130;22;20009;-86
2023/10/04 07:06:44;;;;;;;11.95;6.97;;;;;;;20.20;41.35;100480.06;6301967;22;20077;-86
2023/10/04 07:09:10;;;;;;;13.35;6.35;;;;;;;20.43;41.01;100475.50;6302580;22;19999;-86
2023/10/04 07:11:36;;;;;;;13.02;6.80;;;;;;;20.81;40.47;100485.50;6304434;22;20094;-85
2023/10/04 07:14:04;;;;;;;15.68;6.25;;;;;;;21.11;40.85;100499.31;6277012;22;20149;-85
2023/10/04 07:16:29;;;;;;;16.92;5.45;;;;;;;21.21;40.41;100483.66;6304219;22;20015;-88
2023/10/04 07:18:55;;;;;;;18.13;5.60;;;;;;;21.22;40.96;100520.28;6303194;22;19999;-88
2023/10/04 07:21:20;;;;;;;14.05;5.68;;;;;;;20.80;41.25;100467.66;6304455;22;20357;-88
2023/10/04 07:23:46;;;;;;;11.07;4.97;;;;;;;20.90;40.07;100443.06;6304293;22;20013;-88
2023/10/04 07:26:12;;;;;;;15.52;6.10;;;;;;;21.12;40.31;100471.56;6302646;22;20086;-87
2023/10/04 07:28:40;;;;;;;10.68;5.60;;;;;;;20.83;40.36;100507.75;6303612;22;20007;-87
2023/10/04 07:31:05;;;;;;;20.45;6.65;;;;;;;20.65;40.89;100480.84;6303027;22;20438;-87
2023/10/04 07:33:31;;;;;;;15.05;5.85;;;;;;;21.10;40.04;100471.63;6303451;22;20107;-87
2023/10/04 07:35:56;;;;;;;18.27;6.20;;;;;;;21.28;40.32;100493.16;6304462;22;20037;-88
2023/10/04 07:38:22;;;;;;;15.07;6.43;;;;;;;20.97;40.97;100461.53;6304010;22;20078;-88
2023/10/04 07:40:47;;;;;;;18.25;6.50;;;;;;;21.23;41.03;100473.75;6304049;22;20027;-88
2023/10/04 07:43:13;;;;;;;9.95;5.25;;;;;;;21.33;41.33;100439.28;6304134;22;20006;-85
2023/10/04 07:45:39;;;;;;;11.98;4.88;;;;;;;21.87;40.73;100485.88;6304344;22;20022;-84
2023/10/04 07:48:06;;;;;;;18.23;5.88;;;;;;;22.24;40.68;100491.22;6302946;22;20041;-89
2023/10/04 07:50:33;;;;;;;15.40;5.95;;;;;;;22.38;39.71;100479.81;6303741;22;20093;-88
2023/10/04 07:53:04;;;;;;;15.30;5.75;;;;;;;22.16;39.28;100479.03;6303258;22;20010;-88
2023/10/04 07:55:30;;;;;;;17.73;5.22;;;;;;;22.46;38.78;100497.28;6303344;22;20014;-87
2023/10/04 07:58:03;;;;;;;12.40;5.53;;;;;;;22.13;39.14;100476.50;6303768;22;20003;-88
2023/10/04 08:00:29;;;;;;;20.35;6.82;;;;;;;22.37;38.39;100487.00;6304047;22;20003;-87
2023/10/04 08:02:57;;;;;;;21.30;6.07;;;;;;;22.60;38.08;100475.06;6305195;22;20015;-88
2023/10/04 08:05:26;;;;;;;12.68;5.15;;;;;;;22.64;39.14;100499.97;6305011;22;20010;-87
2023/10/04 08:07:56;;;;;;;20.67;5.07;;;;;;;22.85;37.72;100482.69;6303875;22;20003;-88
2023/10/04 08:10:25;;;;;;;10.38;5.80;;;;;;;23.21;36.61;100478.97;6277234;22;20003;-88
2023/10/04 08:12:53;;;;;;;10.80;4.88;;;;;;;22.38;37.47;100432.28;6304185;22;20010;-87
2023/10/04 08:15:21;;;;;;;10.13;5.15;;;;;;;22.55;37.54;100482.47;6304300;22;20013;-88
2023/10/04 08:17:51;;;;;;;13.25;5.72;;;;;;;22.60;37.20;100479.53;6303085;22;20003;-89
2023/10/04 08:20:29;;;;;;;19.08;5.32;;;;;;;22.27;38.55;100450.75;6275872;22;20353;-88
2023/10/04 08:22:57;;;;;;;19.55;5.57;;;;;;;22.49;38.65;100448.75;6294304;22;20090;-88
2023/10/04 08:25:24;;;;;;;10.27;5.80;;;;;;;22.93;37.05;100444.59;6301900;22;20026;-87
2023/10/04 08:27:50;;;;;;;15.32;5.50;;;;;;;22.73;37.45;100442.13;6304328;22;19999;-88
2023/10/04 08:30:17;;;;;;;9.73;3.92;;;;;;;23.20;36.93;100457.50;6304153;22;20094;-87
2023/10/04 08:32:44;;;;;;;13.07;5.85;;;;;;;23.00;36.63;100459.47;6304880;22;20003;-87
2023/10/04 08:35:21;;;;;;;12.90;4.65;;;;;;;22.43;37.43;100441.00;6303045;22;20030;-86
2023/10/04 08:37:48;;;;;;;9.57;4.38;;;;;;;22.48;37.52;100440.75;6301409;22;20014;-87
2023/10/04 08:40:18;;;;;;;15.40;5.07;;;;;;;22.54;38.64;100448.50;6303350;22;20007;-87
2023/10/04 08:42:44;;;;;;;10.93;3.97;;;;;;;22.62;37.09;100429.28;6303699;22;20098;-88
2023/10/04 08:45:10;;;;;;;13.20;5.63;;;;;;;22.74;37.81;100400.81;6275873;22;20491;-88
2023/10/04 08:47:38;;;;;;;15.65;5.50;;;;;;;23.10;36.88;100446.41;6303461;22;20003;-88
2023/10/04 08:50:09;;;;;;;10.73;5.15;;;;;;;23.06;36.59;100432.22;6303559;22;20018;-92
2023/10/04 08:52:36;;;;;;;9.70;4.55;;;;;;;23.27;36.80;100439.22;6303143;22;20004;-86
2023/10/04 08:55:07;;;;;;;10.20;4.72;;;;;;;23.46;36.60;100414.81;6303988;22;20004;-85
2023/10/04 08:57:38;;;;;;;12.65;4.35;;;;;;;23.13;36.59;100445.38;6303720;22;20025;-85
2023/10/04 09:00:15;;;;;;;8.73;4.50;;;;;;;22.92;35.60;100402.50;6304070;22;20456;-87
2023/10/04 09:02:47;;;;;;;10.38;5.82;;;;;;;23.03;35.81;100391.16;6304097;22;20034;-85
2023/10/04 09:05:17;;;;;;;8.35;4.40;;;;;;;22.93;35.29;100433.00;6303539;22;20331;-86
2023/10/04 09:07:43;;;;;;;10.23;4.90;;;;;;;22.67;35.87;100403.84;6303822;22;20462;-87
2023/10/04 09:10:18;;;;;;;7.85;4.15;;;;;;;22.89;35.39;100390.13;6276473;22;20094;-87
2023/10/04 09:12:44;;;;;;;12.15;4.68;;;;;;;22.76;36.66;100390.88;6276095;22;20096;-87
2023/10/04 09:15:13;;;;;;;7.13;3.70;;;;;;;22.97;35.92;100388.81;6301935;22;20007;-86
2023/10/04 09:17:47;;;;;;;16.05;4.32;;;;;;;23.29;36.11;100405.88;6307093;22;20003;-85
2023/10/04 09:20:15;;;;;;;20.88;4.38;;;;;;;23.15;35.93;100379.72;6309081;22;19999;-85
2023/10/04 09:22:40;;;;;;;7.10;4.00;;;;;;;23.03;36.31;100381.28;6310026;22;20072;-85
2023/10/04 09:25:06;;;;;;;13.07;4.53;;;;;;;23.36;35.53;100387.56;6303770;22;20442;-85
2023/10/04 09:27:31;;;;;;;8.00;3.78;;;;;;;;;;6303108;22;20798;-85
2023/10/04 09:29:59;;;;;;;10.02;3.90;;;;;;;23.83;35.02;100389.28;6304427;22;20011;-86
2023/10/04 09:32:35;;;;;;;13.15;4.85;;;;;;;24.16;34.06;100401.75;6303179;22;20441;-85
2023/10/04 09:35:01;;;;;;;10.85;5.03;;;;;;;24.05;33.97;100385.34;6303412;22;20442;-85
2023/10/04 09:37:26;;;;;;;13.50;4.95;;;;;;;24.15;34.93;100408.09;6304747;22;20014;-92
2023/10/04 09:40:13;;;;;;;10.32;5.22;;;;;;;24.34;33.73;100378.16;6279154;22;20013;-86
2023/10/04 09:42:56;;;;;;;7.38;3.70;;;;;;;24.10;33.99;100381.41;6303200;22;20074;-85
2023/10/04 09:45:24;;;;;;;23.90;5.32;;;;;;;23.75;34.73;100365.50;6303929;22;20454;-87
2023/10/04 09:47:53;;;;;;;8.77;4.10;;;;;;;23.38;34.62;100362.28;6303812;22;20480;-89
2023/10/04 09:50:21;;;;;;;8.18;3.95;;;;;;;23.44;34.87;100350.28;6304002;22;20018;-85
2023/10/04 09:52:47;;;;;;;11.43;4.03;;;;;;;23.57;35.24;100343.25;6304399;22;20027;-84
2023/10/04 09:55:13;;;;;;;7.25;3.72;;;;;;;24.10;34.01;100343.69;6303973;22;20011;-88
2023/10/04 09:57:42;;;;;;;10.73;4.03;;;;;;;24.04;34.39;100357.53;6303855;22;19999;-88
2023/10/04 10:00:17;;;;;;;9.82;5.07;;;;;;;23.98;34.55;100352.53;6303934;22;20010;-88
2023/10/04 10:02:48;;;;;;;18.17;9.65;;;;;;;24.36;34.18;100370.88;6275881;22;20003;-86
2023/10/04 10:05:31;;;;;;;14.45;7.70;;;;;;;24.20;33.98;100349.38;6304094;22;20086;-88
2023/10/04 10:08:06;;;;;;;8.40;4.57;;;;;;;24.20;34.08;100345.81;6303784;22;20011;-87
2023/10/04 10:10:43;;;;;;;7.93;3.90;;;;;;;24.21;34.54;100334.09;6303188;22;20003;-88
2023/10/04 10:13:09;;;;;;;16.60;4.63;;;;;;;24.11;35.01;100310.41;6276555;22;20349;-87
2023/10/04 10:15:38;;;;;;;10.85;5.10;;;;;;;24.54;34.49;100335.63;6303047;22;20004;-87
2023/10/04 10:18:07;;;;;;;9.82;4.00;;;;;;;24.49;33.87;100288.22;6296633;22;20014;-87
2023/10/04 10:20:34;;;;;;;9.48;4.25;;;;;;;24.93;33.41;100328.66;6303155;22;20003;-87
2023/10/04 10:22:59;;;;;;;7.95;3.83;;;;;;;24.81;33.10;100341.13;6303218;22;19999;-87
2023/10/04 10:25:32;;;;;;;6.93;4.60;;;;;;;24.68;33.67;100327.53;6303913;22;20007;-87
2023/10/04 10:28:03;;;;;;;12.38;5.15;;;;;;;24.61;33.06;100302.81;6301334;22;20120;-89
2023/10/04 10:30:31;;;;;;;10.80;4.32;;;;;;;24.68;34.67;100319.47;6276146;22;20473;-87
2023/10/04 10:32:58;;;;;;;13.68;6.30;;;;;;;24.83;34.00;100325.69;6303270;22;20007;-88
2023/10/04 10:35:49;;;;;;;9.93;4.63;;;;;;;25.03;32.81;100319.00;6304278;22;20011;-88
2023/10/04 10:38:30;;;;;;;12.52;8.00;;;;;;;25.08;33.34;100308.78;6304220;22;20010;-86
2023/10/04 10:40:56;;;;;;;14.43;6.55;;;;;;;25.06;33.23;100283.72;6303321;22;20076;-87
2023/10/04 10:43:22;;;;;;;19.08;6.65;;;;;;;25.47;33.32;100295.44;6304757;22;20007;-91
2023/10/04 10:45:47;;;;;;;12.43;6.28;;;;;;;25.32;33.01;100270.38;6277177;22;20010;-88
2023/10/04 10:48:13;;;;;;;17.27;7.47;;;;;;;25.12;33.31;100266.28;6305183;22;20014;-89
2023/10/04 10:50:41;;;;;;;13.43;6.10;;;;;;;25.02;33.12;100269.59;6306140;22;20450;-90
2023/10/04 10:53:10;;;;;;;9.18;4.75;;;;;;;25.30;32.92;100273.16;6253147;22;20446;-90
2023/10/04 10:55:40;;;;;;;16.33;5.60;;;;;;;25.06;33.53;100242.38;6306362;22;20007;-90
2023/10/04 10:58:07;;;;;;;10.05;4.07;;;;;;;25.14;32.60;100272.41;6278654;22;20015;-90
2023/10/04 11:00:36;;;;;;;9.88;5.00;;;;;;;25.28;33.07;100268.78;6304428;22;20425;-89
2023/10/04 11:03:06;;;;;;;11.13;3.80;;;;;;;25.69;32.92;100284.91;6278206;22;20082;-90
2023/10/04 11:05:32;;;;;;;8.68;4.78;;;;;;;25.23;32.36;100225.91;6304058;22;20050;-91
2023/10/04 11:07:58;;;;;;;8.45;5.20;;;;;;;25.70;31.66;100256.94;6304280;22;20011;-91
2023/10/04 11:10:25;;;;;;;9.52;4.10;;;;;;;25.70;31.80;100246.13;6305613;22;20003;-91
2023/10/04 11:12:54;;;;;;;13.35;4.53;;;;;;;25.60;31.40;100268.47;6305189;22;20077;-88
2023/10/04 11:15:23;;;;;;;12.50;4.72;;;;;;;25.87;31.87;100258.47;6278267;22;20077;-87
2023/10/04 11:17:50;;;;;;;9.90;4.32;;;;;;;25.65;31.14;100217.69;6277524;22;20014;-88
2023/10/04 11:20:21;;;;;;;6.88;4.05;;;;;;;25.94;30.76;100242.66;6306141;22;20007;-88
2023/10/04 11:22:49;;;;;;;9.80;4.70;;;;;;;26.06;30.60;100243.69;6305429;22;20003;-90
2023/10/04 11:25:16;;;;;;;7.00;3.80;;;;;;;26.05;31.04;100244.63;6253605;22;20018;-91
2023/10/04 11:27:45;;;;;;;9.45;3.78;;;;;;;26.21;30.98;100244.41;6278662;22;20014;-86